sensor_id;sensor_type;location;lat;lon;timestamp;P1;durP1;ratioP1;P2;durP2;ratioP2
11608;SDS011;5860;52.018;8.536;2022-12-11T00:00:07;27.97;;;16.43;;
11608;SDS011;5860;52.018;8.536;2022-12-11T00:02:34;21.47;;;15.13;;
11608;SDS011;5860;52.018;8.536;2022-12-11T00:05:01;24.63;;;16.83;;
11608;SDS011;5860;52.018;8.536;2022-12-11T00:07:28;23.93;;;15.30;;
11608;SDS011;5860;52.018;8.536;2022-12-11T00:09:55;24.27;;;16.60;;
11608;SDS011;5860;52.018;8.536;2022-12-11T00:12:23;25.77;;;16.00;;
11608;SDS011;5860;52.018;8.536;2022-12-11T00:14:52;24.20;;;14.93;;
11608;SDS011;5860;52.018;8.536;2022-12-11T00:17:19;24.57;;;15.73;;
11608;SDS011;5860;52.018;8.536;2022-12-11T00:19:46;25.80;;;15.87;;
11608;SDS011;5860;52.018;8.536;2022-12-11T00:22:16;29.73;;;17.13;;
11608;SDS011;5860;52.018;8.536;2022-12-11T00:24:42;27.10;;;16.67;;
11608;SDS011;5860;52.018;8.536;2022-12-11T00:27:09;28.57;;;16.73;;
11608;SDS011;5860;52.018;8.536;2022-12-11T00:29:36;25.83;;;17.10;;
11608;SDS011;5860;52.018;8.536;2022-12-11T00:32:03;29.03;;;17.77;;
11608;SDS011;5860;52.018;8.536;2022-12-11T00:34:31;28.93;;;17.43;;
11608;SDS011;5860;52.018;8.536;2022-12-11T00:36:58;28.40;;;17.60;;
11608;SDS011;5860;52.018;8.536;2022-12-11T00:39:24;28.67;;;17.70;;
11608;SDS011;5860;52.018;8.536;2022-12-11T00:41:51;36.23;;;18.97;;
11608;SDS011;5860;52.018;8.536;2022-12-11T00:44:18;39.43;;;19.43;;
11608;SDS011;5860;52.018;8.536;2022-12-11T00:46:45;33.43;;;19.67;;
11608;SDS011;5860;52.018;8.536;2022-12-11T00:49:12;36.23;;;19.90;;
11608;SDS011;5860;52.018;8.536;2022-12-11T00:51:39;41.97;;;21.43;;
11608;SDS011;5860;52.018;8.536;2022-12-11T00:54:06;39.60;;;20.23;;
11608;SDS011;5860;52.018;8.536;2022-12-11T00:56:32;38.37;;;21.00;;
11608;SDS011;5860;52.018;8.536;2022-12-11T00:59:00;41.80;;;21.50;;
11608;SDS011;5860;52.018;8.536;2022-12-11T01:01:27;56.53;;;25.97;;
11608;SDS011;5860;52.018;8.536;2022-12-11T01:03:54;54.43;;;24.87;;
11608;SDS011;5860;52.018;8.536;2022-12-11T01:06:23;51.30;;;24.20;;
11608;SDS011;5860;52.018;8.536;2022-12-11T01:08:51;51.10;;;24.00;;
11608;SDS011;5860;52.018;8.536;2022-12-11T01:11:39;43.53;;;22.37;;
11608;SDS011;5860;52.018;8.536;2022-12-11T01:14:08;42.90;;;21.77;;
11608;SDS011;5860;52.018;8.536;2022-12-11T01:16:36;38.33;;;21.10;;
11608;SDS011;5860;52.018;8.536;2022-12-11T01:19:03;38.77;;;21.07;;
11608;SDS011;5860;52.018;8.536;2022-12-11T01:21:29;37.93;;;19.20;;
11608;SDS011;5860;52.018;8.536;2022-12-11T01:23:56;36.50;;;19.97;;
11608;SDS011;5860;52.018;8.536;2022-12-11T01:26:23;40.47;;;21.87;;
11608;SDS011;5860;52.018;8.536;2022-12-11T01:28:50;39.90;;;21.40;;
11608;SDS011;5860;52.018;8.536;2022-12-11T01:31:20;49.93;;;24.00;;
11608;SDS011;5860;52.018;8.536;2022-12-11T01:33:47;48.93;;;24.03;;
11608;SDS011;5860;52.018;8.536;2022-12-11T01:36:15;48.60;;;24.70;;
11608;SDS011;5860;52.018;8.536;2022-12-11T01:38:44;45.47;;;22.47;;
11608;SDS011;5860;52.018;8.536;2022-12-11T01:41:13;47.93;;;24.13;;
11608;SDS011;5860;52.018;8.536;2022-12-11T01:44:01;44.43;;;22.80;;
11608;SDS011;5860;52.018;8.536;2022-12-11T01:46:34;45.33;;;22.23;;
11608;SDS011;5860;52.018;8.536;2022-12-11T01:49:03;45.87;;;23.17;;
11608;SDS011;5860;52.018;8.536;2022-12-11T01:51:35;54.07;;;24.43;;
11608;SDS011;5860;52.018;8.536;2022-12-11T01:54:08;48.17;;;23.77;;
11608;SDS011;5860;52.018;8.536;2022-12-11T01:56:37;46.07;;;23.03;;
11608;SDS011;5860;52.018;8.536;2022-12-11T01:59:07;44.50;;;23.23;;
11608;SDS011;5860;52.018;8.536;2022-12-11T02:01:39;50.13;;;23.70;;
11608;SDS011;5860;52.018;8.536;2022-12-11T02:04:10;47.33;;;23.50;;
11608;SDS011;5860;52.018;8.536;2022-12-11T02:06:40;46.63;;;23.67;;
11608;SDS011;5860;52.018;8.536;2022-12-11T02:09:15;48.27;;;24.07;;
11608;SDS011;5860;52.018;8.536;2022-12-11T02:16:59;52.23;;;25.37;;
11608;SDS011;5860;52.018;8.536;2022-12-11T02:19:59;58.97;;;25.83;;
11608;SDS011;5860;52.018;8.536;2022-12-11T02:25:39;55.70;;;24.77;;
11608;SDS011;5860;52.018;8.536;2022-12-11T02:28:31;54.73;;;24.43;;
11608;SDS011;5860;52.018;8.536;2022-12-11T02:33:44;52.13;;;25.10;;
11608;SDS011;5860;52.018;8.536;2022-12-11T02:36:16;54.77;;;23.40;;
11608;SDS011;5860;52.018;8.536;2022-12-11T02:38:47;57.87;;;26.10;;
11608;SDS011;5860;52.018;8.536;2022-12-11T02:41:17;48.87;;;24.70;;
11608;SDS011;5860;52.018;8.536;2022-12-11T02:43:46;49.90;;;26.07;;
11608;SDS011;5860;52.018;8.536;2022-12-11T02:46:15;53.30;;;25.57;;
11608;SDS011;5860;52.018;8.536;2022-12-11T02:48:45;49.97;;;25.60;;
11608;SDS011;5860;52.018;8.536;2022-12-11T02:51:15;52.40;;;26.30;;
11608;SDS011;5860;52.018;8.536;2022-12-11T02:53:43;52.77;;;25.90;;
11608;SDS011;5860;52.018;8.536;2022-12-11T02:56:12;58.13;;;25.70;;
11608;SDS011;5860;52.018;8.536;2022-12-11T02:59:02;53.03;;;26.30;;
11608;SDS011;5860;52.018;8.536;2022-12-11T03:01:33;66.47;;;26.47;;
11608;SDS011;5860;52.018;8.536;2022-12-11T03:04:00;58.47;;;26.40;;
11608;SDS011;5860;52.018;8.536;2022-12-11T03:06:30;56.43;;;26.23;;
11608;SDS011;5860;52.018;8.536;2022-12-11T03:09:01;55.17;;;27.80;;
11608;SDS011;5860;52.018;8.536;2022-12-11T03:11:29;64.90;;;27.10;;
11608;SDS011;5860;52.018;8.536;2022-12-11T03:13:58;57.33;;;25.63;;
11608;SDS011;5860;52.018;8.536;2022-12-11T03:18:59;60.60;;;27.77;;
11608;SDS011;5860;52.018;8.536;2022-12-11T03:21:32;64.03;;;28.30;;
11608;SDS011;5860;52.018;8.536;2022-12-11T03:26:47;68.60;;;28.27;;
11608;SDS011;5860;52.018;8.536;2022-12-11T03:29:23;64.83;;;28.90;;
11608;SDS011;5860;52.018;8.536;2022-12-11T03:32:07;57.40;;;28.03;;
11608;SDS011;5860;52.018;8.536;2022-12-11T03:34:42;64.17;;;28.70;;
11608;SDS011;5860;52.018;8.536;2022-12-11T03:37:12;57.83;;;27.33;;
11608;SDS011;5860;52.018;8.536;2022-12-11T03:39:41;62.67;;;29.33;;
11608;SDS011;5860;52.018;8.536;2022-12-11T03:42:16;63.70;;;28.40;;
11608;SDS011;5860;52.018;8.536;2022-12-11T03:44:47;69.73;;;29.23;;
11608;SDS011;5860;52.018;8.536;2022-12-11T03:47:17;69.40;;;29.00;;
11608;SDS011;5860;52.018;8.536;2022-12-11T03:49:47;72.57;;;30.50;;
11608;SDS011;5860;52.018;8.536;2022-12-11T03:52:16;63.63;;;29.53;;
11608;SDS011;5860;52.018;8.536;2022-12-11T03:54:45;71.13;;;28.57;;
11608;SDS011;5860;52.018;8.536;2022-12-11T03:57:15;62.27;;;28.23;;
11608;SDS011;5860;52.018;8.536;2022-12-11T03:59:44;59.20;;;28.60;;
11608;SDS011;5860;52.018;8.536;2022-12-11T04:02:11;69.53;;;30.43;;
11608;SDS011;5860;52.018;8.536;2022-12-11T04:04:39;69.97;;;29.07;;
11608;SDS011;5860;52.018;8.536;2022-12-11T04:07:07;65.63;;;28.27;;
11608;SDS011;5860;52.018;8.536;2022-12-11T04:09:34;61.63;;;28.67;;
11608;SDS011;5860;52.018;8.536;2022-12-11T04:12:01;66.37;;;28.13;;
11608;SDS011;5860;52.018;8.536;2022-12-11T04:14:28;80.97;;;29.17;;
11608;SDS011;5860;52.018;8.536;2022-12-11T04:17:14;67.40;;;28.80;;
11608;SDS011;5860;52.018;8.536;2022-12-11T04:20:01;61.13;;;28.53;;
11608;SDS011;5860;52.018;8.536;2022-12-11T04:22:47;62.00;;;28.30;;
11608;SDS011;5860;52.018;8.536;2022-12-11T04:25:32;68.23;;;28.57;;
11608;SDS011;5860;52.018;8.536;2022-12-11T04:28:02;62.13;;;27.97;;
11608;SDS011;5860;52.018;8.536;2022-12-11T04:30:30;65.60;;;26.97;;
11608;SDS011;5860;52.018;8.536;2022-12-11T04:32:59;54.90;;;27.50;;
11608;SDS011;5860;52.018;8.536;2022-12-11T04:35:27;59.93;;;28.00;;
11608;SDS011;5860;52.018;8.536;2022-12-11T04:37:54;65.40;;;28.17;;
11608;SDS011;5860;52.018;8.536;2022-12-11T04:40:21;61.37;;;28.03;;
11608;SDS011;5860;52.018;8.536;2022-12-11T04:42:48;65.60;;;26.63;;
11608;SDS011;5860;52.018;8.536;2022-12-11T04:45:15;57.57;;;28.33;;
11608;SDS011;5860;52.018;8.536;2022-12-11T04:47:45;53.37;;;27.53;;
11608;SDS011;5860;52.018;8.536;2022-12-11T04:50:12;61.27;;;27.20;;
11608;SDS011;5860;52.018;8.536;2022-12-11T04:52:41;61.47;;;27.47;;
11608;SDS011;5860;52.018;8.536;2022-12-11T04:55:09;64.77;;;27.73;;
11608;SDS011;5860;52.018;8.536;2022-12-11T04:57:37;56.93;;;28.80;;
11608;SDS011;5860;52.018;8.536;2022-12-11T05:00:05;59.13;;;28.93;;
11608;SDS011;5860;52.018;8.536;2022-12-11T05:02:35;57.53;;;27.10;;
11608;SDS011;5860;52.018;8.536;2022-12-11T05:05:03;57.57;;;26.57;;
11608;SDS011;5860;52.018;8.536;2022-12-11T05:07:31;59.63;;;27.60;;
11608;SDS011;5860;52.018;8.536;2022-12-11T05:09:58;61.50;;;27.57;;
11608;SDS011;5860;52.018;8.536;2022-12-11T05:12:25;54.67;;;25.60;;
11608;SDS011;5860;52.018;8.536;2022-12-11T05:14:52;59.50;;;28.40;;
11608;SDS011;5860;52.018;8.536;2022-12-11T05:17:20;54.77;;;27.50;;
11608;SDS011;5860;52.018;8.536;2022-12-11T05:19:47;59.53;;;28.63;;
11608;SDS011;5860;52.018;8.536;2022-12-11T05:22:16;57.73;;;26.47;;
11608;SDS011;5860;52.018;8.536;2022-12-11T05:24:44;46.83;;;24.67;;
11608;SDS011;5860;52.018;8.536;2022-12-11T05:27:11;52.50;;;24.83;;
11608;SDS011;5860;52.018;8.536;2022-12-11T05:29:38;50.00;;;23.03;;
11608;SDS011;5860;52.018;8.536;2022-12-11T05:32:04;50.47;;;23.90;;
11608;SDS011;5860;52.018;8.536;2022-12-11T05:34:33;51.40;;;23.40;;
11608;SDS011;5860;52.018;8.536;2022-12-11T05:37:00;50.20;;;19.20;;
11608;SDS011;5860;52.018;8.536;2022-12-11T05:39:27;40.40;;;19.83;;
11608;SDS011;5860;52.018;8.536;2022-12-11T05:41:54;37.23;;;17.53;;
11608;SDS011;5860;52.018;8.536;2022-12-11T05:44:21;39.53;;;17.87;;
11608;SDS011;5860;52.018;8.536;2022-12-11T05:46:48;38.37;;;18.07;;
11608;SDS011;5860;52.018;8.536;2022-12-11T05:49:15;41.50;;;19.13;;
11608;SDS011;5860;52.018;8.536;2022-12-11T05:51:45;43.33;;;19.17;;
11608;SDS011;5860;52.018;8.536;2022-12-11T05:54:12;44.97;;;20.33;;
11608;SDS011;5860;52.018;8.536;2022-12-11T05:56:39;51.17;;;22.67;;
11608;SDS011;5860;52.018;8.536;2022-12-11T05:59:06;47.77;;;20.50;;
11608;SDS011;5860;52.018;8.536;2022-12-11T06:01:37;43.80;;;19.30;;
11608;SDS011;5860;52.018;8.536;2022-12-11T06:04:06;42.13;;;20.57;;
11608;SDS011;5860;52.018;8.536;2022-12-11T06:06:35;46.17;;;19.47;;
11608;SDS011;5860;52.018;8.536;2022-12-11T06:09:03;46.07;;;19.63;;
11608;SDS011;5860;52.018;8.536;2022-12-11T06:11:31;43.50;;;18.20;;
11608;SDS011;5860;52.018;8.536;2022-12-11T06:13:59;43.07;;;19.70;;
11608;SDS011;5860;52.018;8.536;2022-12-11T06:16:27;42.97;;;18.23;;
11608;SDS011;5860;52.018;8.536;2022-12-11T06:18:55;42.57;;;19.20;;
11608;SDS011;5860;52.018;8.536;2022-12-11T06:21:24;45.00;;;20.53;;
11608;SDS011;5860;52.018;8.536;2022-12-11T06:23:53;45.30;;;18.17;;
11608;SDS011;5860;52.018;8.536;2022-12-11T06:26:22;46.57;;;18.77;;
11608;SDS011;5860;52.018;8.536;2022-12-11T06:28:50;38.53;;;17.63;;
11608;SDS011;5860;52.018;8.536;2022-12-11T06:31:17;42.37;;;19.00;;
11608;SDS011;5860;52.018;8.536;2022-12-11T06:33:44;41.60;;;18.40;;
11608;SDS011;5860;52.018;8.536;2022-12-11T06:36:12;41.40;;;18.67;;
11608;SDS011;5860;52.018;8.536;2022-12-11T06:38:42;45.10;;;21.60;;
11608;SDS011;5860;52.018;8.536;2022-12-11T06:41:09;49.70;;;20.47;;
11608;SDS011;5860;52.018;8.536;2022-12-11T06:43:37;47.07;;;19.37;;
11608;SDS011;5860;52.018;8.536;2022-12-11T06:46:06;42.33;;;18.47;;
11608;SDS011;5860;52.018;8.536;2022-12-11T06:48:34;41.47;;;19.37;;
11608;SDS011;5860;52.018;8.536;2022-12-11T06:51:05;49.60;;;20.63;;
11608;SDS011;5860;52.018;8.536;2022-12-11T06:53:32;43.23;;;17.83;;
11608;SDS011;5860;52.018;8.536;2022-12-11T06:56:06;49.27;;;20.73;;
11608;SDS011;5860;52.018;8.536;2022-12-11T06:58:35;55.43;;;21.37;;
11608;SDS011;5860;52.018;8.536;2022-12-11T07:01:03;53.10;;;21.50;;
11608;SDS011;5860;52.018;8.536;2022-12-11T07:03:31;54.57;;;22.57;;
11608;SDS011;5860;52.018;8.536;2022-12-11T07:05:59;50.17;;;21.77;;
11608;SDS011;5860;52.018;8.536;2022-12-11T07:08:27;51.63;;;21.77;;
11608;SDS011;5860;52.018;8.536;2022-12-11T07:11:00;49.30;;;21.83;;
11608;SDS011;5860;52.018;8.536;2022-12-11T07:13:31;56.40;;;20.50;;
11608;SDS011;5860;52.018;8.536;2022-12-11T07:15:58;54.30;;;21.27;;
11608;SDS011;5860;52.018;8.536;2022-12-11T07:18:27;49.90;;;21.57;;
11608;SDS011;5860;52.018;8.536;2022-12-11T07:20:56;51.30;;;20.80;;
11608;SDS011;5860;52.018;8.536;2022-12-11T07:23:24;51.73;;;22.13;;
11608;SDS011;5860;52.018;8.536;2022-12-11T07:25:52;49.53;;;21.00;;
11608;SDS011;5860;52.018;8.536;2022-12-11T07:28:19;58.73;;;22.33;;
11608;SDS011;5860;52.018;8.536;2022-12-11T07:30:46;47.80;;;21.03;;
11608;SDS011;5860;52.018;8.536;2022-12-11T07:33:14;51.67;;;21.47;;
11608;SDS011;5860;52.018;8.536;2022-12-11T07:35:41;55.97;;;21.13;;
11608;SDS011;5860;52.018;8.536;2022-12-11T07:38:08;50.97;;;21.33;;
11608;SDS011;5860;52.018;8.536;2022-12-11T07:40:35;53.17;;;20.87;;
11608;SDS011;5860;52.018;8.536;2022-12-11T07:43:02;54.47;;;21.57;;
11608;SDS011;5860;52.018;8.536;2022-12-11T07:45:29;54.30;;;22.40;;
11608;SDS011;5860;52.018;8.536;2022-12-11T07:47:56;51.07;;;20.27;;
11608;SDS011;5860;52.018;8.536;2022-12-11T07:50:24;51.47;;;21.40;;
11608;SDS011;5860;52.018;8.536;2022-12-11T07:52:51;51.80;;;21.60;;
11608;SDS011;5860;52.018;8.536;2022-12-11T07:55:17;50.27;;;20.63;;
11608;SDS011;5860;52.018;8.536;2022-12-11T07:57:44;51.07;;;21.50;;
11608;SDS011;5860;52.018;8.536;2022-12-11T08:00:11;47.73;;;20.27;;
11608;SDS011;5860;52.018;8.536;2022-12-11T08:02:38;47.90;;;19.30;;
11608;SDS011;5860;52.018;8.536;2022-12-11T08:05:06;53.57;;;20.23;;
11608;SDS011;5860;52.018;8.536;2022-12-11T08:07:34;42.57;;;18.53;;
11608;SDS011;5860;52.018;8.536;2022-12-11T08:10:02;49.80;;;19.63;;
11608;SDS011;5860;52.018;8.536;2022-12-11T08:12:29;47.33;;;19.57;;
11608;SDS011;5860;52.018;8.536;2022-12-11T08:14:56;52.50;;;20.17;;
11608;SDS011;5860;52.018;8.536;2022-12-11T08:17:23;41.60;;;18.97;;
11608;SDS011;5860;52.018;8.536;2022-12-11T08:19:57;46.27;;;20.07;;
11608;SDS011;5860;52.018;8.536;2022-12-11T08:22:24;49.93;;;19.57;;
11608;SDS011;5860;52.018;8.536;2022-12-11T08:24:50;43.07;;;18.60;;
11608;SDS011;5860;52.018;8.536;2022-12-11T08:27:17;41.90;;;17.47;;
11608;SDS011;5860;52.018;8.536;2022-12-11T08:29:44;39.87;;;17.43;;
11608;SDS011;5860;52.018;8.536;2022-12-11T08:32:12;38.70;;;17.93;;
11608;SDS011;5860;52.018;8.536;2022-12-11T08:34:42;36.10;;;15.63;;
11608;SDS011;5860;52.018;8.536;2022-12-11T08:37:09;39.10;;;15.97;;
11608;SDS011;5860;52.018;8.536;2022-12-11T08:39:36;41.50;;;17.80;;
11608;SDS011;5860;52.018;8.536;2022-12-11T08:42:03;39.27;;;16.77;;
11608;SDS011;5860;52.018;8.536;2022-12-11T08:44:30;34.90;;;16.93;;
11608;SDS011;5860;52.018;8.536;2022-12-11T08:46:57;42.20;;;18.00;;
11608;SDS011;5860;52.018;8.536;2022-12-11T08:49:24;38.10;;;17.03;;
11608;SDS011;5860;52.018;8.536;2022-12-11T08:51:57;36.23;;;16.17;;
11608;SDS011;5860;52.018;8.536;2022-12-11T08:54:24;31.47;;;14.97;;
11608;SDS011;5860;52.018;8.536;2022-12-11T08:56:51;38.57;;;15.70;;
11608;SDS011;5860;52.018;8.536;2022-12-11T08:59:23;35.87;;;16.27;;
11608;SDS011;5860;52.018;8.536;2022-12-11T09:01:51;39.23;;;15.23;;
11608;SDS011;5860;52.018;8.536;2022-12-11T09:04:19;33.20;;;15.33;;
11608;SDS011;5860;52.018;8.536;2022-12-11T09:06:46;33.43;;;14.87;;
11608;SDS011;5860;52.018;8.536;2022-12-11T09:09:13;35.10;;;15.73;;
11608;SDS011;5860;52.018;8.536;2022-12-11T09:11:41;31.67;;;15.13;;
11608;SDS011;5860;52.018;8.536;2022-12-11T09:14:08;31.10;;;14.83;;
11608;SDS011;5860;52.018;8.536;2022-12-11T09:16:39;34.73;;;16.70;;
11608;SDS011;5860;52.018;8.536;2022-12-11T09:19:08;39.37;;;17.50;;
11608;SDS011;5860;52.018;8.536;2022-12-11T09:21:39;39.43;;;16.07;;
11608;SDS011;5860;52.018;8.536;2022-12-11T09:24:08;40.17;;;18.20;;
11608;SDS011;5860;52.018;8.536;2022-12-11T09:26:36;30.37;;;15.20;;
11608;SDS011;5860;52.018;8.536;2022-12-11T09:29:04;36.27;;;16.93;;
11608;SDS011;5860;52.018;8.536;2022-12-11T09:31:33;38.83;;;16.83;;
11608;SDS011;5860;52.018;8.536;2022-12-11T09:34:05;36.67;;;15.43;;
11608;SDS011;5860;52.018;8.536;2022-12-11T09:36:37;32.90;;;16.00;;
11608;SDS011;5860;52.018;8.536;2022-12-11T09:39:06;38.23;;;16.10;;
11608;SDS011;5860;52.018;8.536;2022-12-11T09:41:37;31.93;;;14.73;;
11608;SDS011;5860;52.018;8.536;2022-12-11T09:47:08;34.57;;;15.97;;
11608;SDS011;5860;52.018;8.536;2022-12-11T09:49:44;32.53;;;16.70;;
11608;SDS011;5860;52.018;8.536;2022-12-11T09:52:22;34.90;;;16.50;;
11608;SDS011;5860;52.018;8.536;2022-12-11T09:55:00;30.97;;;15.13;;
11608;SDS011;5860;52.018;8.536;2022-12-11T09:57:31;31.27;;;15.47;;
11608;SDS011;5860;52.018;8.536;2022-12-11T10:00:21;32.60;;;15.30;;
11608;SDS011;5860;52.018;8.536;2022-12-11T10:07:55;35.73;;;16.40;;
11608;SDS011;5860;52.018;8.536;2022-12-11T10:16:44;36.80;;;16.67;;
11608;SDS011;5860;52.018;8.536;2022-12-11T10:19:18;38.67;;;17.17;;
11608;SDS011;5860;52.018;8.536;2022-12-11T10:21:54;35.20;;;17.57;;
11608;SDS011;5860;52.018;8.536;2022-12-11T10:24:32;37.80;;;18.63;;
11608;SDS011;5860;52.018;8.536;2022-12-11T10:27:27;38.43;;;19.23;;
11608;SDS011;5860;52.018;8.536;2022-12-11T10:32:51;33.40;;;17.60;;
11608;SDS011;5860;52.018;8.536;2022-12-11T10:35:32;40.17;;;18.10;;
11608;SDS011;5860;52.018;8.536;2022-12-11T10:38:14;35.23;;;17.50;;
11608;SDS011;5860;52.018;8.536;2022-12-11T10:40:55;33.87;;;17.53;;
11608;SDS011;5860;52.018;8.536;2022-12-11T10:43:34;34.27;;;18.80;;
11608;SDS011;5860;52.018;8.536;2022-12-11T10:46:03;32.47;;;17.83;;
11608;SDS011;5860;52.018;8.536;2022-12-11T10:48:32;33.93;;;17.70;;
11608;SDS011;5860;52.018;8.536;2022-12-11T10:51:03;28.80;;;16.23;;
11608;SDS011;5860;52.018;8.536;2022-12-11T10:53:32;30.77;;;15.70;;
11608;SDS011;5860;52.018;8.536;2022-12-11T10:56:00;29.90;;;15.67;;
11608;SDS011;5860;52.018;8.536;2022-12-11T10:58:28;32.63;;;16.40;;
11608;SDS011;5860;52.018;8.536;2022-12-11T11:01:02;27.97;;;15.47;;
11608;SDS011;5860;52.018;8.536;2022-12-11T11:03:30;27.70;;;14.53;;
11608;SDS011;5860;52.018;8.536;2022-12-11T11:06:02;27.87;;;15.07;;
11608;SDS011;5860;52.018;8.536;2022-12-11T11:08:43;26.00;;;15.30;;
11608;SDS011;5860;52.018;8.536;2022-12-11T11:14:13;25.67;;;15.20;;
11608;SDS011;5860;52.018;8.536;2022-12-11T11:16:45;26.83;;;13.80;;
11608;SDS011;5860;52.018;8.536;2022-12-11T11:21:50;28.13;;;15.73;;
11608;SDS011;5860;52.018;8.536;2022-12-11T11:24:44;24.93;;;14.23;;
11608;SDS011;5860;52.018;8.536;2022-12-11T11:27:32;23.47;;;13.87;;
11608;SDS011;5860;52.018;8.536;2022-12-11T11:30:04;26.17;;;14.40;;
11608;SDS011;5860;52.018;8.536;2022-12-11T11:32:37;20.00;;;11.23;;
11608;SDS011;5860;52.018;8.536;2022-12-11T11:37:39;24.57;;;13.33;;
11608;SDS011;5860;52.018;8.536;2022-12-11T11:45:16;23.67;;;13.43;;
11608;SDS011;5860;52.018;8.536;2022-12-11T11:50:38;21.27;;;11.40;;
11608;SDS011;5860;52.018;8.536;2022-12-11T11:53:16;24.80;;;11.93;;
11608;SDS011;5860;52.018;8.536;2022-12-11T11:59:10;21.83;;;11.17;;
11608;SDS011;5860;52.018;8.536;2022-12-11T12:01:44;20.83;;;11.67;;
11608;SDS011;5860;52.018;8.536;2022-12-11T12:04:11;25.63;;;13.13;;
11608;SDS011;5860;52.018;8.536;2022-12-11T12:06:42;21.70;;;11.73;;
11608;SDS011;5860;52.018;8.536;2022-12-11T12:14:54;22.83;;;11.90;;
11608;SDS011;5860;52.018;8.536;2022-12-11T12:17:42;19.33;;;9.73;;
11608;SDS011;5860;52.018;8.536;2022-12-11T12:20:37;15.33;;;8.43;;
11608;SDS011;5860;52.018;8.536;2022-12-11T12:23:19;16.37;;;9.07;;
11608;SDS011;5860;52.018;8.536;2022-12-11T12:25:54;18.73;;;10.30;;
11608;SDS011;5860;52.018;8.536;2022-12-11T12:31:23;19.50;;;10.70;;
11608;SDS011;5860;52.018;8.536;2022-12-11T12:43:13;16.10;;;8.70;;
11608;SDS011;5860;52.018;8.536;2022-12-11T12:48:48;16.60;;;9.13;;
11608;SDS011;5860;52.018;8.536;2022-12-11T12:51:17;14.87;;;7.80;;
11608;SDS011;5860;52.018;8.536;2022-12-11T12:53:48;15.50;;;9.07;;
11608;SDS011;5860;52.018;8.536;2022-12-11T12:56:22;12.93;;;7.70;;
11608;SDS011;5860;52.018;8.536;2022-12-11T12:58:51;14.83;;;8.70;;
11608;SDS011;5860;52.018;8.536;2022-12-11T13:01:19;17.53;;;9.67;;
11608;SDS011;5860;52.018;8.536;2022-12-11T13:06:41;14.40;;;8.70;;
11608;SDS011;5860;52.018;8.536;2022-12-11T13:09:23;15.30;;;8.27;;
11608;SDS011;5860;52.018;8.536;2022-12-11T13:11:52;13.90;;;8.67;;
11608;SDS011;5860;52.018;8.536;2022-12-11T13:17:39;15.27;;;8.93;;
11608;SDS011;5860;52.018;8.536;2022-12-11T13:19:46;16.93;;;10.40;;
11608;SDS011;5860;52.018;8.536;2022-12-11T13:25:17;20.63;;;11.37;;
11608;SDS011;5860;52.018;8.536;2022-12-11T13:27:44;17.73;;;10.17;;
11608;SDS011;5860;52.018;8.536;2022-12-11T13:32:41;17.43;;;10.07;;
11608;SDS011;5860;52.018;8.536;2022-12-11T13:35:28;17.13;;;9.90;;
11608;SDS011;5860;52.018;8.536;2022-12-11T13:38:00;22.07;;;11.17;;
11608;SDS011;5860;52.018;8.536;2022-12-11T13:40:38;18.77;;;10.43;;
11608;SDS011;5860;52.018;8.536;2022-12-11T13:43:15;18.17;;;10.80;;
11608;SDS011;5860;52.018;8.536;2022-12-11T13:45:48;23.00;;;12.10;;
11608;SDS011;5860;52.018;8.536;2022-12-11T13:50:50;18.37;;;11.07;;
11608;SDS011;5860;52.018;8.536;2022-12-11T13:53:20;19.37;;;11.40;;
11608;SDS011;5860;52.018;8.536;2022-12-11T13:56:06;18.13;;;11.03;;
11608;SDS011;5860;52.018;8.536;2022-12-11T13:58:41;19.67;;;11.00;;
11608;SDS011;5860;52.018;8.536;2022-12-11T14:06:34;19.27;;;11.27;;
11608;SDS011;5860;52.018;8.536;2022-12-11T14:09:02;15.97;;;9.53;;
11608;SDS011;5860;52.018;8.536;2022-12-11T14:11:33;17.50;;;10.60;;
11608;SDS011;5860;52.018;8.536;2022-12-11T14:14:14;20.87;;;10.40;;
11608;SDS011;5860;52.018;8.536;2022-12-11T14:16:47;22.27;;;11.07;;
11608;SDS011;5860;52.018;8.536;2022-12-11T14:19:18;18.97;;;10.50;;
11608;SDS011;5860;52.018;8.536;2022-12-11T14:21:56;16.20;;;9.33;;
11608;SDS011;5860;52.018;8.536;2022-12-11T14:24:27;19.03;;;9.60;;
11608;SDS011;5860;52.018;8.536;2022-12-11T14:26:55;18.57;;;10.83;;
11608;SDS011;5860;52.018;8.536;2022-12-11T14:29:32;20.73;;;10.93;;
11608;SDS011;5860;52.018;8.536;2022-12-11T14:32:00;19.67;;;11.30;;
11608;SDS011;5860;52.018;8.536;2022-12-11T14:34:31;19.47;;;11.90;;
11608;SDS011;5860;52.018;8.536;2022-12-11T14:37:03;20.37;;;10.57;;
11608;SDS011;5860;52.018;8.536;2022-12-11T14:42:36;26.90;;;13.73;;
11608;SDS011;5860;52.018;8.536;2022-12-11T14:45:28;23.50;;;12.70;;
11608;SDS011;5860;52.018;8.536;2022-12-11T14:48:01;28.00;;;13.63;;
11608;SDS011;5860;52.018;8.536;2022-12-11T14:50:39;25.30;;;12.87;;
11608;SDS011;5860;52.018;8.536;2022-12-11T14:53:20;24.90;;;13.47;;
11608;SDS011;5860;52.018;8.536;2022-12-11T14:55:53;21.73;;;13.07;;
11608;SDS011;5860;52.018;8.536;2022-12-11T14:58:24;25.50;;;13.60;;
11608;SDS011;5860;52.018;8.536;2022-12-11T15:00:56;24.83;;;13.10;;
11608;SDS011;5860;52.018;8.536;2022-12-11T15:03:33;26.20;;;16.40;;
11608;SDS011;5860;52.018;8.536;2022-12-11T15:12:14;22.57;;;12.40;;
11608;SDS011;5860;52.018;8.536;2022-12-11T15:14:51;20.93;;;11.93;;
11608;SDS011;5860;52.018;8.536;2022-12-11T15:17:25;20.67;;;12.20;;
11608;SDS011;5860;52.018;8.536;2022-12-11T15:19:54;33.63;;;18.13;;
11608;SDS011;5860;52.018;8.536;2022-12-11T15:22:28;26.30;;;15.63;;
11608;SDS011;5860;52.018;8.536;2022-12-11T15:24:57;27.10;;;14.40;;
11608;SDS011;5860;52.018;8.536;2022-12-11T15:27:38;25.73;;;14.13;;
11608;SDS011;5860;52.018;8.536;2022-12-11T15:30:23;31.10;;;16.40;;
11608;SDS011;5860;52.018;8.536;2022-12-11T15:35:35;24.77;;;13.83;;
11608;SDS011;5860;52.018;8.536;2022-12-11T15:38:03;20.47;;;12.87;;
11608;SDS011;5860;52.018;8.536;2022-12-11T15:40:30;23.10;;;12.27;;
11608;SDS011;5860;52.018;8.536;2022-12-11T15:42:59;24.40;;;13.50;;
11608;SDS011;5860;52.018;8.536;2022-12-11T15:45:27;27.57;;;15.17;;
11608;SDS011;5860;52.018;8.536;2022-12-11T15:47:54;27.03;;;15.23;;
11608;SDS011;5860;52.018;8.536;2022-12-11T15:50:22;39.67;;;18.90;;
11608;SDS011;5860;52.018;8.536;2022-12-11T15:52:51;27.80;;;15.60;;
11608;SDS011;5860;52.018;8.536;2022-12-11T15:55:20;27.03;;;15.00;;
11608;SDS011;5860;52.018;8.536;2022-12-11T15:57:50;27.70;;;14.37;;
11608;SDS011;5860;52.018;8.536;2022-12-11T16:00:20;25.37;;;12.93;;
11608;SDS011;5860;52.018;8.536;2022-12-11T16:02:49;26.93;;;14.00;;
11608;SDS011;5860;52.018;8.536;2022-12-11T16:05:17;23.17;;;13.63;;
11608;SDS011;5860;52.018;8.536;2022-12-11T16:07:44;25.47;;;13.90;;
11608;SDS011;5860;52.018;8.536;2022-12-11T16:10:13;25.43;;;14.73;;
11608;SDS011;5860;52.018;8.536;2022-12-11T16:12:42;24.97;;;14.10;;
11608;SDS011;5860;52.018;8.536;2022-12-11T16:15:13;25.53;;;13.90;;
11608;SDS011;5860;52.018;8.536;2022-12-11T16:17:48;27.13;;;14.57;;
11608;SDS011;5860;52.018;8.536;2022-12-11T16:20:15;25.47;;;14.43;;
11608;SDS011;5860;52.018;8.536;2022-12-11T16:22:41;21.60;;;13.17;;
11608;SDS011;5860;52.018;8.536;2022-12-11T16:25:08;22.60;;;12.90;;
11608;SDS011;5860;52.018;8.536;2022-12-11T16:27:36;19.50;;;11.87;;
11608;SDS011;5860;52.018;8.536;2022-12-11T16:30:03;22.20;;;12.87;;
11608;SDS011;5860;52.018;8.536;2022-12-11T16:32:30;20.57;;;12.87;;
11608;SDS011;5860;52.018;8.536;2022-12-11T16:34:57;23.70;;;13.30;;
11608;SDS011;5860;52.018;8.536;2022-12-11T16:37:27;26.87;;;15.53;;
11608;SDS011;5860;52.018;8.536;2022-12-11T16:39:54;26.30;;;13.90;;